Time;durP1;ratioP1;P1;durP2;ratioP2;P2;SDS_P1;SDS_P2;PMS_P1;PMS_P2;Temp;Humidity;BMP_temperature;BMP_pressure;BME280_temperature;BME280_humidity;BME280_pressure;Samples;Min_cycle;Max_cycle;Signal;HPM_P1;HPM_P2
2021/03/10 00:00:07;;;;;;;8.55;4.43;;;;;;;;;;5011191;28;20021;-75
2021/03/10 00:02:33;;;;;;;9.85;4.85;;;;;;;;;;5012973;28;20041;-72
2021/03/10 00:04:59;;;;;;;9.68;5.38;;;;;;;;;;4995310;28;20029;-75
2021/03/10 00:07:25;;;;;;;8.77;4.28;;;;;;;;;;4994981;28;20033;-72
2021/03/10 00:09:52;;;;;;;12.05;6.15;;;;;;;;;;4996540;28;20041;-72
2021/03/10 00:12:18;;;;;;;9.23;5.07;;;;;;;;;;4994325;28;20080;-71
2021/03/10 00:14:44;;;;;;;8.48;4.43;;;;;;;;;;5011730;28;20088;-70
2021/03/10 00:17:10;;;;;;;9.93;5.05;;;;;;;;;;4995047;28;20028;-71
2021/03/10 00:19:36;;;;;;;8.30;4.10;;;;;;;;;;4994923;28;20406;-74
2021/03/10 00:22:03;;;;;;;10.93;4.80;;;;;;;;;;4995245;28;20022;-74
2021/03/10 00:24:29;;;;;;;9.63;4.45;;;;;;;;;;4994642;28;20069;-73
2021/03/10 00:26:55;;;;;;;12.00;4.20;;;;;;;;;;4994613;28;20018;-72
2021/03/10 00:29:21;;;;;;;7.63;3.97;;;;;;;;;;4994523;28;20426;-72
2021/03/10 00:31:47;;;;;;;10.55;5.97;;;;;;;;;;4994428;28;20030;-72
2021/03/10 00:34:13;;;;;;;9.90;4.65;;;;;;;;;;4994424;28;20425;-74
2021/03/10 00:36:39;;;;;;;15.65;6.10;;;;;;;;;;4994743;28;20112;-71
2021/03/10 00:39:05;;;;;;;13.75;6.15;;;;;;;;;;4993908;28;20018;-74
2021/03/10 00:41:32;;;;;;;10.18;4.72;;;;;;;;;;5002822;28;20029;-75
2021/03/10 00:43:58;;;;;;;12.48;5.28;;;;;;;;;;4995127;28;20014;-74
2021/03/10 00:46:24;;;;;;;11.75;4.25;;;;;;;;;;5012101;28;20359;-73
2021/03/10 00:48:50;;;;;;;7.47;4.22;;;;;;;;;;5012749;28;20014;-75
2021/03/10 00:51:16;;;;;;;9.05;4.85;;;;;;;;;;4995182;28;20108;-73
2021/03/10 00:53:42;;;;;;;7.28;4.28;;;;;;;;;;4995179;28;20398;-73
2021/03/10 00:56:09;;;;;;;10.00;4.72;;;;;;;;;;4995061;28;20022;-75
2021/03/10 00:58:35;;;;;;;10.13;4.30;;;;;;;;;;4995086;28;20022;-72
2021/03/10 01:01:01;;;;;;;9.55;4.30;;;;;;;;;;5012217;28;20030;-73
2021/03/10 01:03:27;;;;;;;11.25;5.40;;;;;;;;;;4994966;28;20017;-73
2021/03/10 01:05:53;;;;;;;8.40;4.25;;;;;;;;;;4994939;28;20477;-73
2021/03/10 01:08:19;;;;;;;10.25;5.10;;;;;;;;;;4994839;28;20025;-73
2021/03/10 01:10:47;;;;;;;10.15;5.03;;;;;;;;;;4994980;28;20050;-75
2021/03/10 01:13:13;;;;;;;;;;;;;;;;;;5012167;28;20463;-73
2021/03/10 01:15:39;;;;;;;9.55;4.40;;;;;;;;;;4994826;28;20000;-71
2021/03/10 01:18:05;;;;;;;9.93;5.20;;;;;;;;;;5012583;28;20049;-71
2021/03/10 01:20:31;;;;;;;10.32;5.40;;;;;;;;;;4994108;28;20124;-71
2021/03/10 01:22:57;;;;;;;14.48;4.93;;;;;;;;;;4994597;28;20546;-71
2021/03/10 01:25:24;;;;;;;9.77;4.90;;;;;;;;;;4994881;28;20110;-73
2021/03/10 01:27:51;;;;;;;10.30;5.50;;;;;;;;;;4994164;28;20132;-72
2021/03/10 01:30:20;;;;;;;14.90;5.40;;;;;;;;;;4994672;28;20029;-73
2021/03/10 01:32:46;;;;;;;9.18;4.45;;;;;;;;;;4995917;28;20026;-76
2021/03/10 01:35:12;;;;;;;11.52;4.65;;;;;;;;;;4996634;28;20018;-75
2021/03/10 01:37:39;;;;;;;9.27;4.33;;;;;;;;;;5016866;28;20490;-77
2021/03/10 01:40:09;;;;;;;7.80;4.50;;;;;;;;;;5009592;28;20018;-73
2021/03/10 01:42:36;;;;;;;14.50;5.10;;;;;;;;;;5015003;28;20071;-73
2021/03/10 01:45:03;;;;;;;10.68;5.88;;;;;;;;;;4997859;28;20029;-73
2021/03/10 01:47:29;;;;;;;;;;;;;;;;;;4998627;28;20018;-75
2021/03/10 01:49:55;;;;;;;12.27;4.22;;;;;;;;;;4997903;28;19909;-76
2021/03/10 01:52:21;;;;;;;9.35;3.97;;;;;;;;;;4998723;28;20033;-73
2021/03/10 01:54:48;;;;;;;8.77;4.95;;;;;;;;;;4998010;28;20044;-73
2021/03/10 01:57:14;;;;;;;7.65;4.63;;;;;;;;;;5014881;28;20013;-71
2021/03/10 01:59:41;;;;;;;9.80;4.57;;;;;;;;;;5014003;28;20026;-74
2021/03/10 02:02:07;;;;;;;5.53;3.40;;;;;;;;;;5015491;28;20034;-71
2021/03/10 02:04:33;;;;;;;10.15;5.07;;;;;;;;;;4998797;28;20033;-71
2021/03/10 02:07:05;;;;;;;8.05;4.28;;;;;;;;;;5015124;28;20018;-72
2021/03/10 02:09:47;;;;;;;13.43;6.43;;;;;;;;;;5002929;28;20029;-71
2021/03/10 02:12:24;;;;;;;7.70;3.92;;;;;;;;;;4997725;28;20026;-73
2021/03/10 02:14:59;;;;;;;11.73;3.97;;;;;;;;;;4998281;28;20030;-72
2021/03/10 02:17:27;;;;;;;6.40;3.78;;;;;;;;;;4996440;28;20030;-72
2021/03/10 02:20:00;;;;;;;8.13;4.18;;;;;;;;;;5008454;28;20076;-72
2021/03/10 02:22:36;;;;;;;8.20;4.53;;;;;;;;;;4997661;28;20022;-71
2021/03/10 02:25:15;;;;;;;6.78;3.72;;;;;;;;;;5005061;28;20522;-72
2021/03/10 02:27:44;;;;;;;11.05;5.68;;;;;;;;;;5010179;28;20058;-72
2021/03/10 02:30:16;;;;;;;7.03;4.50;;;;;;;;;;5013036;28;20057;-74
2021/03/10 02:32:50;;;;;;;9.57;3.90;;;;;;;;;;4998069;28;20104;-72
2021/03/10 02:35:16;;;;;;;6.22;3.85;;;;;;;;;;4996653;28;20344;-72
2021/03/10 02:37:44;;;;;;;11.80;5.32;;;;;;;;;;4996542;28;20028;-74
2021/03/10 02:40:11;;;;;;;12.80;7.13;;;;;;;;;;5014188;28;20028;-72
2021/03/10 02:42:38;;;;;;;15.52;7.10;;;;;;;;;;5014210;28;20021;-73
2021/03/10 02:45:04;;;;;;;14.10;7.45;;;;;;;;;;5013726;28;20487;-73
2021/03/10 02:47:31;;;;;;;12.15;6.65;;;;;;;;;;4995054;28;20124;-73
2021/03/10 02:49:58;;;;;;;15.00;7.43;;;;;;;;;;5012557;28;20878;-72
2021/03/10 02:52:25;;;;;;;14.13;7.43;;;;;;;;;;5001566;28;20076;-70
2021/03/10 02:54:52;;;;;;;16.33;7.47;;;;;;;;;;4996195;28;20030;-72
2021/03/10 02:57:18;;;;;;;18.58;6.97;;;;;;;;;;4996369;28;20026;-71
2021/03/10 02:59:47;;;;;;;13.85;7.25;;;;;;;;;;5013714;28;20026;-71
2021/03/10 03:02:14;;;;;;;27.63;8.48;;;;;;;;;;4996968;28;20024;-71
2021/03/10 03:04:41;;;;;;;12.63;7.27;;;;;;;;;;5011813;28;20014;-71
2021/03/10 03:07:07;;;;;;;13.93;5.53;;;;;;;;;;5014378;28;20235;-71
2021/03/10 03:09:34;;;;;;;9.77;5.30;;;;;;;;;;5006905;28;20022;-73
2021/03/10 03:12:01;;;;;;;11.60;5.80;;;;;;;;;;5014675;28;20121;-74
2021/03/10 03:14:29;;;;;;;9.57;4.57;;;;;;;;;;5012813;28;20115;-73
2021/03/10 03:16:54;;;;;;;;;;;;;;;;;;5014325;28;20112;-74
2021/03/10 03:19:21;;;;;;;14.45;4.88;;;;;;;;;;4996719;28;20003;-74
2021/03/10 03:21:47;;;;;;;9.38;4.65;;;;;;;;;;4996588;28;20112;-73
2021/03/10 03:24:15;;;;;;;11.27;5.70;;;;;;;;;;4996236;28;20022;-73
2021/03/10 03:26:41;;;;;;;13.93;7.15;;;;;;;;;;5013662;28;20109;-75
2021/03/10 03:29:07;;;;;;;13.13;6.00;;;;;;;;;;4992407;28;20042;-72
2021/03/10 03:31:34;;;;;;;9.27;5.80;;;;;;;;;;4993404;28;20045;-72
2021/03/10 03:34:00;;;;;;;13.38;7.75;;;;;;;;;;4993160;28;20022;-75
2021/03/10 03:36:26;;;;;;;17.52;8.20;;;;;;;;;;4994367;28;20076;-74
2021/03/10 03:38:53;;;;;;;17.23;7.10;;;;;;;;;;4993067;28;20089;-74
2021/03/10 03:41:21;;;;;;;17.75;6.88;;;;;;;;;;4993941;28;20084;-74
2021/03/10 03:43:46;;;;;;;;;;;;;;;;;;4993806;28;20109;-73
2021/03/10 03:46:13;;;;;;;11.43;7.07;;;;;;;;;;4993263;28;19941;-76
2021/03/10 03:48:39;;;;;;;13.07;5.90;;;;;;;;;;4992298;28;20019;-74
2021/03/10 03:51:24;;;;;;;11.18;6.30;;;;;;;;;;4993038;28;20030;-74
2021/03/10 03:53:54;;;;;;;15.43;6.00;;;;;;;;;;4993603;28;20025;-75
2021/03/10 03:56:20;;;;;;;12.80;6.13;;;;;;;;;;4993528;28;20022;-74
2021/03/10 03:58:46;;;;;;;13.73;5.65;;;;;;;;;;4993219;28;20014;-75
2021/03/10 04:01:12;;;;;;;8.38;5.97;;;;;;;;;;4992995;28;20018;-75
2021/03/10 04:03:39;;;;;;;14.02;6.57;;;;;;;;;;4993903;28;20018;-75
2021/03/10 04:06:05;;;;;;;9.98;5.88;;;;;;;;;;4993481;28;20054;-75
2021/03/10 04:08:31;;;;;;;14.68;6.90;;;;;;;;;;4993632;28;20110;-74
2021/03/10 04:10:57;;;;;;;10.90;6.82;;;;;;;;;;4993590;28;20034;-74
2021/03/10 04:13:23;;;;;;;9.32;5.55;;;;;;;;;;4993395;28;20023;-75
2021/03/10 04:15:49;;;;;;;10.80;6.43;;;;;;;;;;4993409;28;20022;-76
2021/03/10 04:18:15;;;;;;;12.70;6.18;;;;;;;;;;4995313;28;20026;-75
2021/03/10 04:20:41;;;;;;;11.68;5.25;;;;;;;;;;4993284;28;20030;-74
2021/03/10 04:23:08;;;;;;;12.82;6.18;;;;;;;;;;4998294;28;20058;-75
2021/03/10 04:25:34;;;;;;;9.68;4.57;;;;;;;;;;4996106;28;20511;-69
2021/03/10 04:28:00;;;;;;;10.63;5.22;;;;;;;;;;4997112;28;20070;-75
2021/03/10 04:30:26;;;;;;;13.93;5.95;;;;;;;;;;4999148;28;20109;-74
2021/03/10 04:32:52;;;;;;;16.05;7.95;;;;;;;;;;5000008;28;20221;-75
2021/03/10 04:35:19;;;;;;;20.73;8.90;;;;;;;;;;5017687;28;20025;-75
2021/03/10 04:37:46;;;;;;;18.33;10.65;;;;;;;;;;5016986;28;20018;-76
2021/03/10 04:40:12;;;;;;;17.92;9.60;;;;;;;;;;4999923;28;20113;-75
2021/03/10 04:42:39;;;;;;;18.15;9.43;;;;;;;;;;5000702;28;20026;-75
2021/03/10 04:45:07;;;;;;;18.83;9.45;;;;;;;;;;4994899;28;20018;-74
2021/03/10 04:47:33;;;;;;;20.35;10.38;;;;;;;;;;4996139;28;20022;-75
2021/03/10 04:50:00;;;;;;;22.17;10.00;;;;;;;;;;5011245;28;20096;-76
2021/03/10 04:52:26;;;;;;;19.42;10.60;;;;;;;;;;4995015;28;20104;-76
2021/03/10 04:54:52;;;;;;;14.88;8.48;;;;;;;;;;4994836;28;20018;-75
2021/03/10 04:57:19;;;;;;;20.10;9.88;;;;;;;;;;4995807;28;20061;-75
2021/03/10 04:59:45;;;;;;;20.75;9.85;;;;;;;;;;4994355;28;20030;-75
2021/03/10 05:02:11;;;;;;;17.52;8.70;;;;;;;;;;4995662;28;20029;-74
2021/03/10 05:04:38;;;;;;;17.63;8.55;;;;;;;;;;4992793;28;20117;-75
2021/03/10 05:07:04;;;;;;;;;;;;;;;;;;5013158;28;20045;-75
2021/03/10 05:09:31;;;;;;;17.73;8.90;;;;;;;;;;4995841;28;19933;-75
2021/03/10 05:11:57;;;;;;;20.98;9.00;;;;;;;;;;4998110;28;20104;-75
2021/03/10 05:14:23;;;;;;;21.95;10.40;;;;;;;;;;4998962;28;20426;-76
2021/03/10 05:16:50;;;;;;;23.58;11.07;;;;;;;;;;4999818;28;20539;-77
2021/03/10 05:19:16;;;;;;;22.52;12.02;;;;;;;;;;4998261;28;20073;-75
2021/03/10 05:21:42;;;;;;;37.83;17.80;;;;;;;;;;5017115;28;20371;-74
2021/03/10 05:24:09;;;;;;;32.60;16.08;;;;;;;;;;4998885;28;20026;-73
2021/03/10 05:26:37;;;;;;;38.75;18.48;;;;;;;;;;4998017;28;20049;-72
2021/03/10 05:29:03;;;;;;;36.05;18.83;;;;;;;;;;4997958;28;20045;-74
2021/03/10 05:31:29;;;;;;;33.65;17.40;;;;;;;;;;5016358;28;20030;-73
2021/03/10 05:33:56;;;;;;;37.55;19.58;;;;;;;;;;4997867;28;20370;-74
2021/03/10 05:36:22;;;;;;;34.22;17.83;;;;;;;;;;4998499;28;20017;-74
2021/03/10 05:38:48;;;;;;;42.97;19.88;;;;;;;;;;4998349;28;20053;-73
2021/03/10 05:41:15;;;;;;;35.70;18.45;;;;;;;;;;5015423;28;20022;-74
2021/03/10 05:43:42;;;;;;;28.87;14.30;;;;;;;;;;4998023;28;20026;-74
2021/03/10 05:46:08;;;;;;;25.98;12.30;;;;;;;;;;4998139;28;20794;-73
2021/03/10 05:48:35;;;;;;;28.83;13.80;;;;;;;;;;4998659;28;20025;-73
2021/03/10 05:51:02;;;;;;;20.60;12.80;;;;;;;;;;4998428;28;20029;-74
2021/03/10 05:53:29;;;;;;;27.80;14.35;;;;;;;;;;4997874;28;20049;-73
2021/03/10 05:56:02;;;;;;;36.38;16.60;;;;;;;;;;4997333;28;20025;-72
2021/03/10 05:58:28;;;;;;;23.15;11.13;;;;;;;;;;4998318;28;20020;-72
2021/03/10 06:00:54;;;;;;;18.75;11.25;;;;;;;;;;5015104;28;20018;-73
2021/03/10 06:03:21;;;;;;;22.65;12.18;;;;;;;;;;4998109;28;20080;-73
2021/03/10 06:05:58;;;;;;;21.30;12.23;;;;;;;;;;4997918;28;20014;-73
2021/03/10 06:08:27;;;;;;;25.30;15.05;;;;;;;;;;4997655;28;20045;-73
2021/03/10 06:10:53;;;;;;;27.48;13.45;;;;;;;;;;4997615;28;20026;-74
2021/03/10 06:13:26;;;;;;;22.42;11.38;;;;;;;;;;5015004;28;20018;-73
2021/03/10 06:15:53;;;;;;;20.42;11.07;;;;;;;;;;4997925;28;20026;-72
2021/03/10 06:18:25;;;;;;;16.17;9.07;;;;;;;;;;5014619;28;20022;-73
2021/03/10 06:21:03;;;;;;;21.92;11.75;;;;;;;;;;4998437;28;20029;-73
2021/03/10 06:23:29;;;;;;;20.13;11.75;;;;;;;;;;5011547;28;20448;-74
2021/03/10 06:25:55;;;;;;;18.10;9.18;;;;;;;;;;4998741;28;20025;-71
2021/03/10 06:28:24;;;;;;;32.15;10.45;;;;;;;;;;4996987;28;20045;-77
2021/03/10 06:30:50;;;;;;;23.98;9.45;;;;;;;;;;4998892;28;20414;-76
2021/03/10 06:33:23;;;;;;;32.70;14.73;;;;;;;;;;5014026;28;20018;-74
2021/03/10 06:35:49;;;;;;;35.95;15.10;;;;;;;;;;5014341;28;20045;-71
2021/03/10 06:38:19;;;;;;;50.10;21.48;;;;;;;;;;5011973;28;20521;-71
2021/03/10 06:40:56;;;;;;;35.25;17.15;;;;;;;;;;4993003;28;20018;-71
2021/03/10 06:43:33;;;;;;;39.08;18.42;;;;;;;;;;5006271;28;20100;-71
2021/03/10 06:45:59;;;;;;;;;;;;;;;;;;5014828;28;20451;-71
2021/03/10 06:48:25;;;;;;;52.10;18.25;;;;;;;;;;4994966;28;19902;-71
2021/03/10 06:50:51;;;;;;;38.10;15.57;;;;;;;;;;4992577;28;20030;-73
2021/03/10 06:53:17;;;;;;;32.92;14.68;;;;;;;;;;4990486;28;20018;-76
2021/03/10 06:55:46;;;;;;;30.00;13.18;;;;;;;;;;4994404;28;20022;-74
2021/03/10 06:58:33;;;;;;;29.92;13.40;;;;;;;;;;5012928;28;20022;-73
2021/03/10 07:01:03;;;;;;;25.43;12.07;;;;;;;;;;5008273;28;20367;-74
2021/03/10 07:03:29;;;;;;;21.38;10.60;;;;;;;;;;5010869;28;20022;-71
2021/03/10 07:05:56;;;;;;;22.65;10.13;;;;;;;;;;4989264;28;20018;-71
2021/03/10 07:08:22;;;;;;;19.50;10.73;;;;;;;;;;4992124;28;20018;-71
2021/03/10 07:10:49;;;;;;;20.30;10.15;;;;;;;;;;5014025;28;20022;-72
2021/03/10 07:13:15;;;;;;;23.35;10.20;;;;;;;;;;5015562;28;20025;-74
2021/03/10 07:15:41;;;;;;;27.80;13.35;;;;;;;;;;4997609;28;20048;-76
2021/03/10 07:18:08;;;;;;;19.13;10.93;;;;;;;;;;4995241;28;20406;-75
2021/03/10 07:20:34;;;;;;;26.05;14.10;;;;;;;;;;5014296;28;20021;-72
2021/03/10 07:23:11;;;;;;;18.88;8.77;;;;;;;;;;5012904;28;20121;-75
2021/03/10 07:25:42;;;;;;;21.48;8.68;;;;;;;;;;5009654;28;20018;-76
2021/03/10 07:28:13;;;;;;;15.80;6.35;;;;;;;;;;5007191;28;20038;-78
2021/03/10 07:30:42;;;;;;;14.38;7.60;;;;;;;;;;5013178;28;20046;-73
2021/03/10 07:33:08;;;;;;;;;;;;;;;;;;4996837;28;20026;-75
2021/03/10 07:35:45;;;;;;;14.80;7.65;;;;;;;;;;5010794;28;19902;-71
2021/03/10 07:38:11;;;;;;;13.25;7.10;;;;;;;;;;5006930;28;20026;-73
2021/03/10 07:40:37;;;;;;;16.15;9.48;;;;;;;;;;5010544;28;20102;-73
2021/03/10 07:43:03;;;;;;;13.05;7.13;;;;;;;;;;4994386;28;20049;-73
2021/03/10 07:45:42;;;;;;;9.73;5.25;;;;;;;;;;4992890;28;20022;-75
2021/03/10 07:48:08;;;;;;;13.70;6.47;;;;;;;;;;4990927;28;20018;-69
2021/03/10 07:50:39;;;;;;;16.33;8.13;;;;;;;;;;5006067;28;20097;-74
2021/03/10 07:53:06;;;;;;;112.55;51.50;;;;;;;;;;5009925;28;20018;-71
2021/03/10 07:55:41;;;;;;;17.90;9.30;;;;;;;;;;4989308;28;20034;-72
2021/03/10 07:58:07;;;;;;;19.90;8.23;;;;;;;;;;4988201;28;20030;-72
2021/03/10 08:00:35;;;;;;;14.45;7.40;;;;;;;;;;4989243;28;20084;-73
2021/03/10 08:03:01;;;;;;;20.50;11.23;;;;;;;;;;5011021;28;20052;-73
2021/03/10 08:05:28;;;;;;;12.02;6.72;;;;;;;;;;5006456;28;20089;-73
2021/03/10 08:08:08;;;;;;;14.30;6.13;;;;;;;;;;4995852;28;20018;-72
2021/03/10 08:10:34;;;;;;;19.05;8.13;;;;;;;;;;5013236;28;20022;-73
2021/03/10 08:13:01;;;;;;;8.30;4.70;;;;;;;;;;5012193;28;20037;-72
2021/03/10 08:15:27;;;;;;;16.17;7.20;;;;;;;;;;5008060;28;20045;-72
2021/03/10 08:18:03;;;;;;;6.18;4.55;;;;;;;;;;5009043;28;20381;-73
2021/03/10 08:20:37;;;;;;;18.77;8.02;;;;;;;;;;5007540;28;20014;-71
2021/03/10 08:23:07;;;;;;;13.52;7.57;;;;;;;;;;4996282;28;20049;-70
2021/03/10 08:25:34;;;;;;;13.60;7.03;;;;;;;;;;4994235;28;20057;-69
2021/03/10 08:28:16;;;;;;;12.85;6.32;;;;;;;;;;5009441;28;20018;-69
2021/03/10 08:30:43;;;;;;;14.20;5.45;;;;;;;;;;4995471;28;20493;-70
2021/03/10 08:33:12;;;;;;;35.43;18.10;;;;;;;;;;5014470;28;20053;-71
2021/03/10 08:35:46;;;;;;;23.15;8.40;;;;;;;;;;5012106;28;20026;-71
2021/03/10 08:38:12;;;;;;;14.98;6.20;;;;;;;;;;5004844;28;20095;-70
2021/03/10 08:40:38;;;;;;;17.23;7.40;;;;;;;;;;4995392;28;20021;-71
2021/03/10 08:43:04;;;;;;;10.05;6.35;;;;;;;;;;5013476;28;20021;-71
2021/03/10 08:45:38;;;;;;;8.30;5.22;;;;;;;;;;5016583;28;20399;-71
2021/03/10 08:48:07;;;;;;;11.73;5.50;;;;;;;;;;5001402;28;20105;-70
2021/03/10 08:50:35;;;;;;;12.10;6.32;;;;;;;;;;5011720;28;20025;-72
2021/03/10 08:53:01;;;;;;;11.55;5.50;;;;;;;;;;5000251;28;20041;-72
2021/03/10 08:55:28;;;;;;;8.75;4.60;;;;;;;;;;4998948;28;20026;-72
2021/03/10 08:57:54;;;;;;;8.00;4.47;;;;;;;;;;5000181;28;20470;-69
2021/03/10 09:00:22;;;;;;;12.18;6.50;;;;;;;;;;5015944;28;20072;-72
2021/03/10 09:02:51;;;;;;;15.07;5.82;;;;;;;;;;4999827;28;20026;-73
2021/03/10 09:05:37;;;;;;;19.38;8.05;;;;;;;;;;4998493;28;20052;-73
2021/03/10 09:08:07;;;;;;;20.40;9.07;;;;;;;;;;5016612;28;20022;-73
2021/03/10 09:10:33;;;;;;;11.35;6.15;;;;;;;;;;5016175;28;20025;-73
2021/03/10 09:12:59;;;;;;;9.02;6.18;;;;;;;;;;5017568;28;20113;-72
2021/03/10 09:15:26;;;;;;;11.98;6.97;;;;;;;;;;5015617;28;20089;-70
2021/03/10 09:17:53;;;;;;;22.45;9.82;;;;;;;;;;4998880;28;20032;-70
2021/03/10 09:20:22;;;;;;;21.88;6.85;;;;;;;;;;4998882;28;20022;-71
2021/03/10 09:22:48;;;;;;;17.33;8.20;;;;;;;;;;5017124;28;20018;-70
2021/03/10 09:25:15;;;;;;;16.63;9.20;;;;;;;;;;5016151;28;20042;-72
2021/03/10 09:27:41;;;;;;;17.40;8.88;;;;;;;;;;5017009;28;20422;-72
2021/03/10 09:30:08;;;;;;;18.98;8.45;;;;;;;;;;4998300;28;20041;-72
2021/03/10 09:32:42;;;;;;;15.32;6.78;;;;;;;;;;5017140;28;20044;-72
2021/03/10 09:35:13;;;;;;;51.65;19.95;;;;;;;;;;4997103;28;20574;-71
2021/03/10 09:37:53;;;;;;;62.35;25.25;;;;;;;;;;5005390;28;20060;-70
2021/03/10 09:40:23;;;;;;;16.98;8.43;;;;;;;;;;5015971;28;20080;-71
2021/03/10 09:42:57;;;;;;;11.00;6.88;;;;;;;;;;5016038;28;20105;-70
2021/03/10 09:45:24;;;;;;;22.83;10.48;;;;;;;;;;5015234;28;20060;-70
2021/03/10 09:47:50;;;;;;;14.93;7.97;;;;;;;;;;4999352;28;20088;-70
2021/03/10 09:50:26;;;;;;;11.82;7.75;;;;;;;;;;5015925;28;20017;-70
2021/03/10 09:52:52;;;;;;;23.40;9.02;;;;;;;;;;4998837;28;20022;-71
2021/03/10 09:55:20;;;;;;;32.45;11.93;;;;;;;;;;4998678;28;20029;-72
2021/03/10 09:57:46;;;;;;;41.53;16.67;;;;;;;;;;4998098;28;20044;-71
2021/03/10 10:00:20;;;;;;;12.38;7.28;;;;;;;;;;4998638;28;20471;-71
2021/03/10 10:02:47;;;;;;;47.33;16.50;;;;;;;;;;4995602;28;20113;-72
2021/03/10 10:05:21;;;;;;;26.10;10.75;;;;;;;;;;4996051;28;20104;-70
2021/03/10 10:07:48;;;;;;;9.98;7.63;;;;;;;;;;5008430;28;20026;-74
2021/03/10 10:10:16;;;;;;;10.55;6.55;;;;;;;;;;4994230;28;20034;-71
2021/03/10 10:12:48;;;;;;;9.38;6.40;;;;;;;;;;5007372;28;20029;-72
2021/03/10 10:15:18;;;;;;;17.73;8.95;;;;;;;;;;5013154;28;20018;-74
2021/03/10 10:17:46;;;;;;;60.95;20.45;;;;;;;;;;4997344;28;20018;-72
2021/03/10 10:20:13;;;;;;;39.38;15.23;;;;;;;;;;4995037;28;20022;-72
2021/03/10 10:22:39;;;;;;;134.23;42.35;;;;;;;;;;4997782;28;20053;-72
2021/03/10 10:25:06;;;;;;;140.15;42.33;;;;;;;;;;4997280;28;20022;-72
2021/03/10 10:27:32;;;;;;;43.83;17.80;;;;;;;;;;4997476;28;20459;-72
2021/03/10 10:29:58;;;;;;;23.70;11.55;;;;;;;;;;5015880;28;20046;-70
2021/03/10 10:32:25;;;;;;;11.90;7.68;;;;;;;;;;5015051;28;20100;-73
2021/03/10 10:34:51;;;;;;;39.22;16.02;;;;;;;;;;5015685;28;20062;-70
2021/03/10 10:37:18;;;;;;;32.58;14.10;;;;;;;;;;5014721;28;20014;-71
2021/03/10 10:39:45;;;;;;;12.90;7.78;;;;;;;;;;4998296;28;20018;-73
2021/03/10 10:42:11;;;;;;;18.08;10.07;;;;;;;;;;5015208;28;20026;-71
2021/03/10 10:44:38;;;;;;;10.25;7.05;;;;;;;;;;5015191;28;20018;-70
2021/03/10 10:47:04;;;;;;;20.75;11.68;;;;;;;;;;4998162;28;20022;-70
2021/03/10 10:49:30;;;;;;;34.25;13.95;;;;;;;;;;4997142;28;20406;-70
2021/03/10 10:51:56;;;;;;;11.75;7.47;;;;;;;;;;4997124;28;20364;-72
2021/03/10 10:54:25;;;;;;;42.05;19.73;;;;;;;;;;5013949;28;20058;-72
2021/03/10 10:56:51;;;;;;;19.35;10.85;;;;;;;;;;5015433;28;20490;-71
2021/03/10 10:59:18;;;;;;;69.40;35.08;;;;;;;;;;4996839;28;20375;-70
2021/03/10 11:01:44;;;;;;;28.65;14.63;;;;;;;;;;5015255;28;20037;-72
2021/03/10 11:04:11;;;;;;;23.35;12.05;;;;;;;;;;5014316;28;20081;-72
2021/03/10 11:06:37;;;;;;;15.13;8.50;;;;;;;;;;5014861;28;20033;-74
2021/03/10 11:09:03;;;;;;;23.27;14.38;;;;;;;;;;5013834;28;20037;-72
2021/03/10 11:11:29;;;;;;;28.92;15.73;;;;;;;;;;4995727;28;20022;-72
2021/03/10 11:13:56;;;;;;;27.40;14.05;;;;;;;;;;4997651;28;20049;-72
2021/03/10 11:16:25;;;;;;;18.50;11.55;;;;;;;;;;4996428;28;20030;-72
2021/03/10 11:18:51;;;;;;;22.88;12.75;;;;;;;;;;4996166;28;20041;-70
2021/03/10 11:21:17;;;;;;;14.43;7.95;;;;;;;;;;5012340;28;20029;-69
2021/03/10 11:23:44;;;;;;;25.15;14.15;;;;;;;;;;5006634;28;20475;-70
2021/03/10 11:26:10;;;;;;;16.05;10.60;;;;;;;;;;4993586;28;20362;-69
2021/03/10 11:28:36;;;;;;;16.17;9.88;;;;;;;;;;4997302;28;20119;-72
2021/03/10 11:31:02;;;;;;;15.07;7.95;;;;;;;;;;5011516;28;20022;-68
2021/03/10 11:33:28;;;;;;;13.77;9.43;;;;;;;;;;4995459;28;20026;-68
2021/03/10 11:35:55;;;;;;;20.95;11.15;;;;;;;;;;5014740;28;20037;-69
2021/03/10 11:38:21;;;;;;;11.18;7.20;;;;;;;;;;5013118;28;20080;-69
2021/03/10 11:40:47;;;;;;;16.15;9.02;;;;;;;;;;4996768;28;20110;-67
2021/03/10 11:43:16;;;;;;;13.27;9.40;;;;;;;;;;5013087;28;20030;-71
2021/03/10 11:45:42;;;;;;;13.60;8.85;;;;;;;;;;5011533;28;20026;-70
2021/03/10 11:48:08;;;;;;;24.13;13.43;;;;;;;;;;4995836;28;20018;-68
2021/03/10 11:50:36;;;;;;;12.48;9.23;;;;;;;;;;5013167;28;20490;-70
2021/03/10 11:53:03;;;;;;;15.77;9.93;;;;;;;;;;4996560;28;20029;-69
2021/03/10 11:55:29;;;;;;;22.77;13.15;;;;;;;;;;5012732;28;20017;-70
2021/03/10 11:57:55;;;;;;;13.82;9.25;;;;;;;;;;4996459;28;20033;-70
2021/03/10 12:00:22;;;;;;;31.40;15.23;;;;;;;;;;4995175;28;20062;-70
2021/03/10 12:02:48;;;;;;;19.60;9.90;;;;;;;;;;4994090;28;20029;-68
2021/03/10 12:05:15;;;;;;;21.83;10.52;;;;;;;;;;5012590;28;20073;-69
2021/03/10 12:07:41;;;;;;;14.35;9.40;;;;;;;;;;5013219;28;20014;-68
2021/03/10 12:10:07;;;;;;;14.07;8.63;;;;;;;;;;5012769;28;20021;-68
2021/03/10 12:12:33;;;;;;;16.42;10.35;;;;;;;;;;4995536;28;20490;-69
2021/03/10 12:14:59;;;;;;;22.25;12.15;;;;;;;;;;4995952;28;20030;-69
2021/03/10 12:17:25;;;;;;;23.95;14.10;;;;;;;;;;4996180;28;20063;-68
2021/03/10 12:19:51;;;;;;;21.63;12.68;;;;;;;;;;5013305;28;20048;-68
2021/03/10 12:22:18;;;;;;;19.52;12.15;;;;;;;;;;4996283;28;20022;-70
2021/03/10 12:24:46;;;;;;;23.08;13.82;;;;;;;;;;4996483;28;20025;-67
2021/03/10 12:27:12;;;;;;;15.73;10.25;;;;;;;;;;5013080;28;20018;-70
2021/03/10 12:29:38;;;;;;;14.38;9.70;;;;;;;;;;5013190;28;20050;-72
2021/03/10 12:32:04;;;;;;;11.73;8.68;;;;;;;;;;5013962;28;20359;-70
2021/03/10 12:34:31;;;;;;;16.52;9.95;;;;;;;;;;4996341;28;20022;-69
2021/03/10 12:36:57;;;;;;;17.48;10.30;;;;;;;;;;5013096;28;20360;-68
2021/03/10 12:39:23;;;;;;;17.33;10.65;;;;;;;;;;5013701;28;20025;-69
2021/03/10 12:41:49;;;;;;;17.35;10.70;;;;;;;;;;5013677;28;20018;-73
2021/03/10 12:44:15;;;;;;;23.15;11.45;;;;;;;;;;4995966;28;20022;-72
2021/03/10 12:46:41;;;;;;;21.02;13.02;;;;;;;;;;5013314;28;20403;-70
2021/03/10 12:49:08;;;;;;;21.88;12.27;;;;;;;;;;5013494;28;20093;-70
2021/03/10 12:51:34;;;;;;;18.35;9.10;;;;;;;;;;5013306;28;20018;-68
2021/03/10 12:54:00;;;;;;;15.65;9.43;;;;;;;;;;5013126;28;20375;-67
2021/03/10 12:56:26;;;;;;;15.52;10.65;;;;;;;;;;5013454;28;20018;-69
2021/03/10 12:58:52;;;;;;;21.63;10.60;;;;;;;;;;5013087;28;20035;-68
2021/03/10 13:01:18;;;;;;;14.25;9.52;;;;;;;;;;4995598;28;20458;-68
2021/03/10 13:03:45;;;;;;;16.02;9.63;;;;;;;;;;5013199;28;20093;-67
2021/03/10 13:06:11;;;;;;;21.13;8.30;;;;;;;;;;4995819;28;20370;-69
2021/03/10 13:08:37;;;;;;;12.75;8.63;;;;;;;;;;5013582;28;20025;-65
2021/03/10 13:11:03;;;;;;;17.33;9.35;;;;;;;;;;5013247;28;20022;-67
2021/03/10 13:13:29;;;;;;;10.98;6.85;;;;;;;;;;5014107;28;20058;-65
2021/03/10 13:15:55;;;;;;;11.73;7.30;;;;;;;;;;5013521;28;20414;-70
2021/03/10 13:18:21;;;;;;;17.02;8.30;;;;;;;;;;4995370;28;20026;-74
2021/03/10 13:20:48;;;;;;;11.20;7.03;;;;;;;;;;5013597;28;20014;-67
2021/03/10 13:23:14;;;;;;;10.88;7.75;;;;;;;;;;4995795;28;20022;-66
2021/03/10 13:25:40;;;;;;;13.77;8.85;;;;;;;;;;5012873;28;20092;-68
2021/03/10 13:28:06;;;;;;;23.08;11.43;;;;;;;;;;5013095;28;20482;-67
2021/03/10 13:30:32;;;;;;;12.60;9.82;;;;;;;;;;5013834;28;20549;-71
2021/03/10 13:32:59;;;;;;;14.05;9.55;;;;;;;;;;5016756;28;20026;-67
2021/03/10 13:35:25;;;;;;;15.05;9.52;;;;;;;;;;4999105;28;20422;-69
2021/03/10 13:37:51;;;;;;;22.88;12.93;;;;;;;;;;5017171;28;20501;-70
2021/03/10 13:40:17;;;;;;;21.33;11.40;;;;;;;;;;5016084;28;20021;-70
2021/03/10 13:42:43;;;;;;;17.63;9.60;;;;;;;;;;4999280;28;20033;-69
2021/03/10 13:45:10;;;;;;;16.80;10.65;;;;;;;;;;4998756;28;20022;-70
2021/03/10 13:47:36;;;;;;;19.40;11.63;;;;;;;;;;5016575;28;20068;-70
2021/03/10 13:50:03;;;;;;;18.95;11.52;;;;;;;;;;4999011;28;20025;-70
2021/03/10 13:52:29;;;;;;;27.50;13.07;;;;;;;;;;5016844;28;20049;-69
2021/03/10 13:54:55;;;;;;;19.38;12.35;;;;;;;;;;5015461;28;20799;-71
2021/03/10 13:57:21;;;;;;;16.92;10.43;;;;;;;;;;4999030;28;20152;-72
2021/03/10 13:59:48;;;;;;;20.48;11.18;;;;;;;;;;4998890;28;20014;-72
2021/03/10 14:02:14;;;;;;;16.15;10.57;;;;;;;;;;4998348;28;20416;-70
2021/03/10 14:04:40;;;;;;;35.08;14.63;;;;;;;;;;5014705;28;20022;-72
2021/03/10 14:07:06;;;;;;;23.40;12.27;;;;;;;;;;4996836;28;20025;-69
2021/03/10 14:09:33;;;;;;;53.50;20.40;;;;;;;;;;5015879;28;20029;-70
2021/03/10 14:11:59;;;;;;;50.80;19.33;;;;;;;;;;4997632;28;20038;-69
2021/03/10 14:14:25;;;;;;;20.90;13.10;;;;;;;;;;5015925;28;20026;-71
2021/03/10 14:16:51;;;;;;;26.33;14.23;;;;;;;;;;5016125;28;20053;-71
2021/03/10 14:19:18;;;;;;;13.95;6.68;;;;;;;;;;4997403;28;20025;-71
2021/03/10 14:21:44;;;;;;;58.30;22.05;;;;;;;;;;5015803;28;20030;-73
2021/03/10 14:24:10;;;;;;;170.00;55.20;;;;;;;;;;5015909;28;20025;-71
2021/03/10 14:26:36;;;;;;;95.90;33.03;;;;;;;;;;5015433;28;20072;-71
2021/03/10 14:29:02;;;;;;;74.00;25.60;;;;;;;;;;4996486;28;20033;-71